createdAt,value
2022-08-25T00:00:26.757Z,3.30
2022-08-25T00:03:14.367Z,4.20
2022-08-25T00:05:48.201Z,3.80
2022-08-25T00:08:20.638Z,4.10
2022-08-25T00:10:59.820Z,4.10
2022-08-25T00:13:35.583Z,4.30
2022-08-25T00:16:14.150Z,3.90
2022-08-25T00:18:47.803Z,3.70
2022-08-25T00:21:21.609Z,4.70
2022-08-25T00:23:53.974Z,5.10
2022-08-25T00:26:26.947Z,4.40
2022-08-25T00:29:02.149Z,4.60
2022-08-25T00:31:37.787Z,4.50
2022-08-25T00:34:16.035Z,4.70
2022-08-25T00:36:48.646Z,4.30
2022-08-25T00:42:00.763Z,4.40
2022-08-25T00:45:00.496Z,4.90
2022-08-25T00:47:36.184Z,4.60
2022-08-25T00:52:43.720Z,4.50
2022-08-25T00:55:21.572Z,4.80
2022-08-25T00:57:56.460Z,4.90
2022-08-25T01:00:33.253Z,4.70
2022-08-25T01:03:05.796Z,4.70
2022-08-25T01:05:41.474Z,4.60
2022-08-25T01:08:16.245Z,5.00
2022-08-25T01:10:52.290Z,5.00
2022-08-25T01:13:32.422Z,5.10
2022-08-25T01:16:05.270Z,5.00
2022-08-25T01:18:49.454Z,4.80
2022-08-25T01:21:23.566Z,5.10
2022-08-25T01:23:57.168Z,5.80
2022-08-25T01:26:34.513Z,4.90
2022-08-25T01:29:22.821Z,5.00
2022-08-25T01:31:59.786Z,5.30
2022-08-25T01:34:35.122Z,4.70
2022-08-25T01:37:07.699Z,5.30
2022-08-25T01:39:44.309Z,5.30
2022-08-25T01:42:40.583Z,5.40
2022-08-25T01:45:18.981Z,5.20
2022-08-25T01:47:56.500Z,5.00
2022-08-25T01:50:33.659Z,5.70
2022-08-25T01:53:14.780Z,5.40
2022-08-25T01:56:05.685Z,5.60
2022-08-25T01:58:46.635Z,5.50
2022-08-25T02:01:22.222Z,5.20
2022-08-25T02:03:56.445Z,7.50
2022-08-25T02:06:33.194Z,5.10
2022-08-25T02:09:12.741Z,5.60
2022-08-25T02:12:40.883Z,6.30
2022-08-25T02:14:52.201Z,5.80
2022-08-25T02:17:26.945Z,5.50
2022-08-25T02:19:59.302Z,6.10
2022-08-25T02:27:13.480Z,5.60
2022-08-25T02:29:46.876Z,6.50
2022-08-25T02:32:18.947Z,6.00
2022-08-25T02:34:55.758Z,6.40
2022-08-25T02:37:27.579Z,5.90
2022-08-25T02:40:02.317Z,6.10
2022-08-25T02:42:34.579Z,6.20
2022-08-25T02:45:09.717Z,6.00
2022-08-25T02:47:44.545Z,5.90
2022-08-25T02:50:17.194Z,6.10
2022-08-25T02:55:19.204Z,6.10
2022-08-25T02:57:50.862Z,6.60
2022-08-25T03:00:22.621Z,6.00
2022-08-25T03:02:54.891Z,6.30
2022-08-25T03:05:27.059Z,6.10
2022-08-25T03:07:58.406Z,7.30
2022-08-25T03:10:30.882Z,6.50
2022-08-25T03:13:03.222Z,6.30
2022-08-25T03:18:05.432Z,6.20
2022-08-25T03:20:40.560Z,6.60
2022-08-25T03:23:11.680Z,6.70
2022-08-25T03:26:01.860Z,6.90
2022-08-25T03:28:34.356Z,6.80
2022-08-25T03:31:08.790Z,6.90
2022-08-25T03:33:41.055Z,6.80
2022-08-25T03:36:13.301Z,6.90
2022-08-25T03:38:45.014Z,7.30
2022-08-25T03:41:22.367Z,6.70
2022-08-25T03:43:54.109Z,7.20
2022-08-25T03:46:29.292Z,7.40
2022-08-25T03:49:04.018Z,7.80
2022-08-25T03:51:46.426Z,7.10
2022-08-25T03:54:26.998Z,7.00
2022-08-25T03:56:58.655Z,6.80
2022-08-25T03:59:30.572Z,8.00
2022-08-25T04:02:03.414Z,7.40
2022-08-25T04:04:35.621Z,7.10
2022-08-25T04:07:08.745Z,6.80
2022-08-25T04:09:44.774Z,7.00
2022-08-25T04:12:20.524Z,7.10
2022-08-25T04:14:56.146Z,7.20
2022-08-25T04:17:29.658Z,7.10
2022-08-25T04:20:03.420Z,8.20
2022-08-25T04:23:04.157Z,7.20
2022-08-25T04:25:38.961Z,6.90
2022-08-25T04:28:19.278Z,7.50
2022-08-25T04:30:55.717Z,7.00
2022-08-25T04:33:35.770Z,7.60
2022-08-25T04:36:13.622Z,7.50
2022-08-25T04:38:50.114Z,8.10
2022-08-25T04:41:26.080Z,7.80
2022-08-25T04:44:00.004Z,7.70
2022-08-25T04:46:35.039Z,8.10
2022-08-25T04:49:08.332Z,9.40
2022-08-25T04:51:48.080Z,8.30
2022-08-25T04:54:22.843Z,8.80
2022-08-25T04:56:58.546Z,8.90
2022-08-25T04:59:31.134Z,7.80
2022-08-25T05:02:06.817Z,8.30
2022-08-25T05:04:40.987Z,8.60
2022-08-25T05:07:14.908Z,7.90
2022-08-25T05:09:46.318Z,8.60
2022-08-25T05:12:18.909Z,8.30
2022-08-25T05:14:52.214Z,9.00
2022-08-25T05:17:26.143Z,8.30
2022-08-25T05:19:58.515Z,8.80
2022-08-25T05:22:32.118Z,8.80
2022-08-25T05:25:05.294Z,8.10
2022-08-25T05:27:41.164Z,8.40
2022-08-25T05:30:18.759Z,9.00
2022-08-25T05:32:51.578Z,9.20
2022-08-25T05:35:27.396Z,8.50
2022-08-25T05:38:02.129Z,9.00
2022-08-25T05:40:37.677Z,8.40
2022-08-25T05:43:10.826Z,9.40
2022-08-25T05:45:46.882Z,9.10
2022-08-25T05:48:20.082Z,8.30
2022-08-25T05:50:57.795Z,8.70
2022-08-25T05:53:31.099Z,8.90
2022-08-25T05:56:06.628Z,9.10
2022-08-25T05:58:39.167Z,9.00
2022-08-25T06:01:28.653Z,9.10
2022-08-25T06:04:01.130Z,9.10
2022-08-25T06:06:33.128Z,9.10
2022-08-25T06:09:08.905Z,10.10
2022-08-25T06:11:42.995Z,9.40
2022-08-25T06:14:15.964Z,8.90
2022-08-25T06:16:49.269Z,9.20
2022-08-25T06:19:21.234Z,8.40
2022-08-25T06:21:53.802Z,9.00
2022-08-25T06:24:26.849Z,8.50
2022-08-25T06:26:58.330Z,8.60
2022-08-25T06:29:29.955Z,9.10
2022-08-25T06:32:01.065Z,9.30
2022-08-25T06:34:31.948Z,9.40
2022-08-25T06:37:04.049Z,8.90
2022-08-25T06:39:35.617Z,9.10
2022-08-25T06:42:07.367Z,8.40
2022-08-25T06:44:38.425Z,8.70
2022-08-25T06:47:09.729Z,8.20
2022-08-25T06:49:41.974Z,9.30
2022-08-25T06:54:42.748Z,8.50
2022-08-25T06:57:13.981Z,8.40
2022-08-25T06:59:44.659Z,8.60
2022-08-25T07:02:15.249Z,9.10
2022-08-25T07:04:53.939Z,8.90
2022-08-25T07:07:26.757Z,9.10
2022-08-25T07:10:15.116Z,9.50
2022-08-25T07:12:52.012Z,8.40
2022-08-25T07:15:24.331Z,8.60
2022-08-25T07:17:57.036Z,8.40
2022-08-25T07:20:29.340Z,8.70
2022-08-25T07:23:03.057Z,8.70
2022-08-25T07:25:36.193Z,9.00
2022-08-25T07:28:08.070Z,9.00
2022-08-25T07:30:41.692Z,9.40
2022-08-25T07:33:15.090Z,9.40
2022-08-25T07:35:46.847Z,8.70
2022-08-25T07:38:20.981Z,8.00
2022-08-25T07:40:57.008Z,9.00
2022-08-25T07:43:30.092Z,8.80
2022-08-25T07:46:02.924Z,9.40
2022-08-25T07:48:35.124Z,9.70
2022-08-25T07:51:12.414Z,8.50
2022-08-25T07:53:46.127Z,9.00
2022-08-25T07:56:19.366Z,9.30
2022-08-25T07:58:52.824Z,8.60
2022-08-25T08:01:26.994Z,9.10
2022-08-25T08:13:15.389Z,8.70
2022-08-25T08:15:49.030Z,8.70
2022-08-25T08:18:19.574Z,9.60
2022-08-25T08:20:51.140Z,9.10
2022-08-25T08:23:27.599Z,9.40
2022-08-25T08:25:57.988Z,8.30
2022-08-25T08:28:28.397Z,7.70
2022-08-25T08:30:58.787Z,8.90
2022-08-25T08:33:29.173Z,7.70
2022-08-25T08:36:01.083Z,7.70
2022-08-25T08:38:36.056Z,8.60
2022-08-25T08:41:33.890Z,8.30
2022-08-25T08:44:16.935Z,8.10
2022-08-25T08:46:54.087Z,7.50
2022-08-25T08:49:32.480Z,8.10
2022-08-25T08:52:04.738Z,8.00
2022-08-25T08:54:37.252Z,8.40
2022-08-25T08:57:11.745Z,7.70
2022-08-25T08:59:48.960Z,7.10
2022-08-25T09:02:39.293Z,8.30
2022-08-25T09:05:19.895Z,8.10
2022-08-25T09:07:55.072Z,8.10
2022-08-25T09:10:31.909Z,7.90
2022-08-25T09:13:12.139Z,7.80
2022-08-25T09:16:07.041Z,7.10
2022-08-25T09:18:51.078Z,7.50
2022-08-25T09:21:29.542Z,6.80
2022-08-25T09:24:14.015Z,7.00
2022-08-25T09:26:53.132Z,6.80
2022-08-25T09:29:26.194Z,7.00
2022-08-25T09:32:09.689Z,7.40
2022-08-25T09:34:41.582Z,7.60
2022-08-25T09:37:12.852Z,7.90
2022-08-25T09:39:43.499Z,8.20
2022-08-25T09:42:13.856Z,8.20
2022-08-25T09:44:46.318Z,8.10
2022-08-25T09:47:23.418Z,8.60
2022-08-25T09:50:00.330Z,8.30
2022-08-25T09:52:41.340Z,8.50
2022-08-25T09:55:32.404Z,9.20
2022-08-25T09:58:04.085Z,8.30
2022-08-25T10:00:39.997Z,8.20
2022-08-25T10:03:15.463Z,8.00
2022-08-25T10:06:02.248Z,7.70
2022-08-25T10:08:37.686Z,7.50
2022-08-25T10:11:13.050Z,7.20
2022-08-25T10:13:47.673Z,6.90
2022-08-25T10:16:26.399Z,7.30
2022-08-25T10:19:10.272Z,7.30
2022-08-25T10:21:42.474Z,7.80
2022-08-25T10:24:14.917Z,7.80
2022-08-25T10:26:53.324Z,7.60
2022-08-25T10:29:41.082Z,7.60
2022-08-25T10:32:17.255Z,8.10
2022-08-25T10:34:52.013Z,7.40
2022-08-25T10:37:33.346Z,8.00
2022-08-25T10:40:11.280Z,8.00
2022-08-25T10:42:47.204Z,8.30
2022-08-25T10:45:40.249Z,7.90
2022-08-25T10:48:34.597Z,7.80
2022-08-25T10:51:18.029Z,8.70
2022-08-25T10:53:56.869Z,8.30
2022-08-25T10:56:30.630Z,7.90
2022-08-25T10:59:20.139Z,7.30
2022-08-25T11:02:23.184Z,7.90
2022-08-25T11:04:57.319Z,8.10
2022-08-25T11:07:32.608Z,8.70
2022-08-25T11:10:10.607Z,7.60
2022-08-25T11:12:45.461Z,8.30
2022-08-25T11:15:21.173Z,8.30
2022-08-25T11:17:55.116Z,8.50
2022-08-25T11:20:28.586Z,8.70
2022-08-25T11:23:11.480Z,8.00
2022-08-25T11:25:45.854Z,8.70
2022-08-25T11:28:19.949Z,8.90
2022-08-25T11:30:53.423Z,8.40
2022-08-25T11:35:55.779Z,8.30
2022-08-25T11:38:38.957Z,8.50
2022-08-25T11:41:15.587Z,8.40
2022-08-25T11:44:00.060Z,8.60
2022-08-25T11:46:45.711Z,8.30
2022-08-25T11:49:31.592Z,7.60
2022-08-25T11:52:03.017Z,8.60
2022-08-25T11:54:38.773Z,9.00
2022-08-25T11:57:20.955Z,8.70
2022-08-25T12:00:12.449Z,8.90
2022-08-25T12:05:33.269Z,8.40
2022-08-25T12:08:24.111Z,8.90
2022-08-25T12:11:10.647Z,8.90
2022-08-25T12:13:44.784Z,8.40
2022-08-25T12:16:43.586Z,8.50
2022-08-25T12:19:29.433Z,8.30
2022-08-25T12:22:22.112Z,9.10
2022-08-25T12:24:56.309Z,8.60
2022-08-25T12:27:33.791Z,9.70
2022-08-25T12:30:18.525Z,8.90
2022-08-25T12:33:00.790Z,9.00
2022-08-25T12:35:33.450Z,9.40
2022-08-25T12:38:06.662Z,8.90
2022-08-25T12:41:01.508Z,8.80
2022-08-25T12:43:37.678Z,8.60
2022-08-25T12:46:36.471Z,8.20
2022-08-25T12:49:14.248Z,8.60
2022-08-25T12:51:54.477Z,7.90
2022-08-25T12:54:40.401Z,8.40
2022-08-25T12:57:29.583Z,8.20
2022-08-25T13:00:05.705Z,7.60
2022-08-25T13:02:54.790Z,6.90
2022-08-25T13:05:44.598Z,7.20
2022-08-25T13:08:37.283Z,7.30
2022-08-25T13:13:49.073Z,6.30
2022-08-25T13:16:25.602Z,6.90
2022-08-25T13:19:01.500Z,6.60
2022-08-25T13:21:35.134Z,6.00
2022-08-25T13:24:10.529Z,6.30
2022-08-25T13:26:48.183Z,6.40
2022-08-25T13:29:23.227Z,6.60
2022-08-25T13:31:57.564Z,6.20
2022-08-25T13:34:34.436Z,6.90
2022-08-25T13:37:30.377Z,7.10
2022-08-25T13:40:12.871Z,6.70
2022-08-25T13:42:50.854Z,6.50
2022-08-25T13:45:27.746Z,6.40
2022-08-25T13:47:58.826Z,7.10
2022-08-25T13:50:39.662Z,7.60
2022-08-25T13:53:14.400Z,7.40
2022-08-25T13:55:53.240Z,7.20
2022-08-25T13:58:39.133Z,7.00
2022-08-25T14:04:26.856Z,7.20
2022-08-25T14:07:27.182Z,7.00
2022-08-25T14:10:09.026Z,7.00
2022-08-25T14:12:44.794Z,6.70
2022-08-25T14:15:32.490Z,5.80
2022-08-25T14:18:06.262Z,6.60
2022-08-25T14:20:37.946Z,5.80
2022-08-25T14:23:12.766Z,5.70
2022-08-25T14:25:46.811Z,5.90
2022-08-25T14:28:19.732Z,6.90
2022-08-25T14:30:53.863Z,7.00
2022-08-25T14:33:27.568Z,7.20
2022-08-25T14:36:02.563Z,7.10
2022-08-25T14:38:33.504Z,6.60
2022-08-25T14:41:03.837Z,6.00
2022-08-25T14:43:34.175Z,6.70
2022-08-25T14:46:07.734Z,6.00
2022-08-25T14:48:43.397Z,5.80
2022-08-25T14:51:14.531Z,6.30
2022-08-25T14:53:45.920Z,6.70
2022-08-25T14:56:16.307Z,6.90
2022-08-25T14:58:50.918Z,6.30
2022-08-25T15:01:28.530Z,6.40
2022-08-25T15:04:05.292Z,6.80
2022-08-25T15:06:37.552Z,6.00
2022-08-25T15:09:10.863Z,6.40
2022-08-25T15:11:43.407Z,6.80
2022-08-25T15:14:17.565Z,6.10
2022-08-25T15:16:51.423Z,5.90
2022-08-25T15:19:24.193Z,6.30
2022-08-25T15:21:58.173Z,5.80
2022-08-25T15:24:32.952Z,6.60
2022-08-25T15:27:10.217Z,5.90
2022-08-25T15:29:41.522Z,5.60
2022-08-25T15:38:37.812Z,6.70
2022-08-25T15:41:09.372Z,6.00
2022-08-25T15:43:43.215Z,6.70
2022-08-25T15:46:17.287Z,6.30
2022-08-25T15:48:49.022Z,5.70
2022-08-25T15:51:19.753Z,6.30
2022-08-25T15:53:50.123Z,6.40
2022-08-25T15:56:26.692Z,6.30
2022-08-25T15:58:58.320Z,6.60
2022-08-25T16:01:30.515Z,6.40
2022-08-25T16:04:01.926Z,6.20
2022-08-25T16:06:37.249Z,5.90
2022-08-25T16:09:08.280Z,6.20
2022-08-25T16:11:39.019Z,5.80
2022-08-25T16:14:10.132Z,6.20
2022-08-25T16:16:43.840Z,6.30
2022-08-25T16:19:16.590Z,6.10
2022-08-25T16:21:47.999Z,6.40
2022-08-25T16:24:22.819Z,6.50
2022-08-25T16:26:55.880Z,6.70
2022-08-25T16:29:27.214Z,6.30
2022-08-25T16:32:06.973Z,7.40
2022-08-25T16:34:37.536Z,6.50
2022-08-25T16:37:09.886Z,6.70
2022-08-25T16:39:44.223Z,6.20
2022-08-25T16:42:17.824Z,6.80
2022-08-25T16:44:48.394Z,6.70
2022-08-25T16:47:25.210Z,6.30
2022-08-25T16:49:58.516Z,6.50
2022-08-25T16:55:16.451Z,6.90
2022-08-25T16:57:49.529Z,6.90
2022-08-25T17:00:23.365Z,6.70
2022-08-25T17:02:59.400Z,6.60
2022-08-25T17:05:30.481Z,7.30
2022-08-25T17:08:19.819Z,6.70
2022-08-25T17:10:50.255Z,6.50
2022-08-25T17:13:20.782Z,6.50
2022-08-25T17:15:52.078Z,7.50
2022-08-25T17:18:23.314Z,6.50
2022-08-25T17:21:04.008Z,6.50
2022-08-25T17:23:35.379Z,6.30
2022-08-25T17:26:06.920Z,6.20
2022-08-25T17:28:44.335Z,6.60
2022-08-25T17:31:15.974Z,6.40
2022-08-25T17:33:46.916Z,6.90
2022-08-25T17:36:19.196Z,6.60
2022-08-25T17:38:50.132Z,6.50
2022-08-25T17:41:21.488Z,6.10
2022-08-25T17:43:52.761Z,6.60
2022-08-25T17:46:25.182Z,7.00
2022-08-25T17:48:57.281Z,6.00
2022-08-25T17:51:31.780Z,7.10
2022-08-25T17:54:04.322Z,6.40
2022-08-25T17:56:36.687Z,5.90
2022-08-25T18:01:40.783Z,5.50
2022-08-25T18:04:21.371Z,6.30
2022-08-25T18:06:56.332Z,6.30
2022-08-25T18:09:28.752Z,6.80
2022-08-25T18:12:02.559Z,6.20
2022-08-25T18:14:35.837Z,5.90
2022-08-25T18:17:07.486Z,7.10
2022-08-25T18:19:42.384Z,6.30
2022-08-25T18:22:13.786Z,6.40
2022-08-25T18:24:46.293Z,6.50
2022-08-25T18:27:19.399Z,6.00
2022-08-25T18:29:54.313Z,6.20
2022-08-25T18:34:58.665Z,5.70
2022-08-25T18:37:46.569Z,6.00
2022-08-25T18:40:25.740Z,5.40
2022-08-25T18:42:57.984Z,5.50
2022-08-25T18:45:31.897Z,6.20
2022-08-25T18:48:02.533Z,6.10
2022-08-25T18:50:38.684Z,5.70
2022-08-25T18:53:10.908Z,5.90
2022-08-25T18:58:12.473Z,5.50
2022-08-25T19:00:44.999Z,5.20
2022-08-25T19:03:22.305Z,5.30
2022-08-25T19:05:57.291Z,6.00
2022-08-25T19:08:28.565Z,5.60
2022-08-25T19:10:59.618Z,5.20
2022-08-25T19:13:30.606Z,5.30
2022-08-25T19:16:17.838Z,5.40
2022-08-25T19:18:53.360Z,5.50
2022-08-25T19:21:24.598Z,5.40
2022-08-25T19:23:56.769Z,5.20
2022-08-25T19:29:00.102Z,5.00
2022-08-25T19:34:04.946Z,4.60
2022-08-25T19:36:35.939Z,5.30
2022-08-25T19:39:09.433Z,5.40
2022-08-25T19:41:41.725Z,5.70
2022-08-25T19:44:13.030Z,4.60
2022-08-25T19:46:44.907Z,5.40
2022-08-25T19:49:18.155Z,5.40
2022-08-25T19:51:51.878Z,5.30
2022-08-25T19:54:25.187Z,5.00
2022-08-25T19:56:57.249Z,4.90
2022-08-25T19:59:40.364Z,4.60
2022-08-25T20:02:16.175Z,5.20
2022-08-25T20:04:49.935Z,4.90
2022-08-25T20:07:23.572Z,4.70
2022-08-25T20:09:56.033Z,4.60
2022-08-25T20:12:28.325Z,5.30
2022-08-25T20:15:00.460Z,5.00
2022-08-25T20:17:31.258Z,4.60
2022-08-25T20:20:09.348Z,5.20
2022-08-25T20:22:42.816Z,5.00
2022-08-25T20:25:17.767Z,4.80
2022-08-25T20:27:52.790Z,4.90
2022-08-25T20:30:25.689Z,4.60
2022-08-25T20:32:57.492Z,4.50
2022-08-25T20:35:30.117Z,5.00
2022-08-25T20:38:02.503Z,4.70
2022-08-25T20:40:34.995Z,5.00
2022-08-25T20:43:10.507Z,5.20
2022-08-25T20:45:42.817Z,4.70
2022-08-25T20:48:13.353Z,5.00
2022-08-25T20:50:44.214Z,5.00
2022-08-25T20:53:15.682Z,4.90
2022-08-25T20:55:48.571Z,4.90
2022-08-25T20:58:24.329Z,5.00
2022-08-25T21:00:58.886Z,4.80
2022-08-25T21:03:32.251Z,5.10
2022-08-25T21:06:09.732Z,4.60
2022-08-25T21:08:48.087Z,4.60
2022-08-25T21:11:22.780Z,5.00
2022-08-25T21:14:00.977Z,4.60
2022-08-25T21:16:47.183Z,5.40
2022-08-25T21:19:30.100Z,4.30
2022-08-25T21:22:04.604Z,4.70
2022-08-25T21:24:59.592Z,4.60
2022-08-25T21:27:49.399Z,4.30
2022-08-25T21:30:21.920Z,4.70
2022-08-25T21:32:54.060Z,4.70
2022-08-25T21:35:27.616Z,5.00
2022-08-25T21:38:01.258Z,4.70
2022-08-25T21:40:38.096Z,5.10
2022-08-25T21:43:11.062Z,5.20
2022-08-25T21:45:46.831Z,5.50
2022-08-25T21:48:19.511Z,4.90
2022-08-25T21:50:50.293Z,5.10
2022-08-25T21:53:21.703Z,5.20
2022-08-25T21:55:52.635Z,4.60
2022-08-25T21:58:23.410Z,4.80
2022-08-25T22:00:53.978Z,4.70
2022-08-25T22:03:29.269Z,5.30
2022-08-25T22:06:01.820Z,4.80
2022-08-25T22:08:40.790Z,5.10
2022-08-25T22:11:16.877Z,4.60
2022-08-25T22:13:52.269Z,5.30
2022-08-25T22:16:32.072Z,5.10
2022-08-25T22:19:09.945Z,5.20
2022-08-25T22:21:47.843Z,5.20
2022-08-25T22:24:20.111Z,5.10
2022-08-25T22:26:52.878Z,4.40
2022-08-25T22:29:27.733Z,5.30
2022-08-25T22:32:02.796Z,4.80
2022-08-25T22:34:40.086Z,5.00
2022-08-25T22:37:12.933Z,4.70
2022-08-25T22:39:54.212Z,4.80
2022-08-25T22:42:28.028Z,4.70
2022-08-25T22:45:05.002Z,4.70
2022-08-25T22:47:39.250Z,5.10
2022-08-25T22:50:17.334Z,5.00
2022-08-25T22:52:53.091Z,4.60
2022-08-25T22:55:28.175Z,5.40
2022-08-25T22:58:04.363Z,4.70
2022-08-25T23:00:44.699Z,5.10
2022-08-25T23:05:55.609Z,4.80
2022-08-25T23:08:39.155Z,5.20
2022-08-25T23:11:18.840Z,5.30
2022-08-25T23:14:06.257Z,5.10
2022-08-25T23:16:46.740Z,4.70
2022-08-25T23:19:37.511Z,4.80
2022-08-25T23:22:12.499Z,5.10
2022-08-25T23:24:50.035Z,4.40
2022-08-25T23:27:26.502Z,4.90
2022-08-25T23:30:02.752Z,4.60
2022-08-25T23:32:39.341Z,5.00
2022-08-25T23:35:19.387Z,4.80
2022-08-25T23:42:33.243Z,4.70
2022-08-25T23:45:12.615Z,5.20
2022-08-25T23:52:25.876Z,5.30
2022-08-25T23:59:37.427Z,4.80
